Time;durP1;ratioP1;P1;durP2;ratioP2;P2;SDS_P1;SDS_P2;PMS_P1;PMS_P2;Temp;Humidity;BMP_temperature;BMP_pressure;BME280_temperature;BME280_humidity;BME280_pressure;Samples;Min_cycle;Max_cycle;Signal;HPM_P1;HPM_P2
2023/03/22 00:19:48;;;;;;;6.07;5.40;;;11.00;99.90;;;;;;6156916;22;1206408;-79
2023/03/22 00:22:15;;;;;;;7.43;6.70;;;11.00;99.90;;;;;;6178860;23;20139;-78
2023/03/22 00:24:40;;;;;;;8.63;7.37;;;11.10;99.90;;;;;;6204786;23;20370;-78
2023/03/22 00:27:06;;;;;;;9.30;5.80;;;11.10;99.90;;;;;;6177560;23;20382;-79
2023/03/22 00:29:31;;;;;;;6.27;5.60;;;11.10;99.90;;;;;;6204504;23;20170;-78
2023/03/22 00:31:57;;;;;;;7.77;6.63;;;11.10;99.90;;;;;;6178775;23;20197;-78
2023/03/22 00:34:22;;;;;;;10.20;7.73;;;11.00;99.90;;;;;;6178940;23;20146;-79
2023/03/22 00:36:48;;;;;;;10.50;7.63;;;11.10;99.90;;;;;;6153845;23;20139;-79
2023/03/22 00:39:14;;;;;;;7.00;6.30;;;11.10;99.90;;;;;;6204876;23;20170;-78
2023/03/22 00:41:40;;;;;;;8.10;5.93;;;11.00;99.90;;;;;;6177114;23;20138;-80
2023/03/22 00:44:06;;;;;;;9.03;6.73;;;11.10;99.90;;;;;;6153088;23;20370;-80
2023/03/22 00:46:32;;;;;;;12.90;7.60;;;11.10;99.90;;;;;;6177326;23;20365;-78
2023/03/22 00:48:57;;;;;;;8.03;7.20;;;11.10;99.90;;;;;;6152777;23;20213;-77
2023/03/22 00:51:23;;;;;;;7.77;6.57;;;11.10;99.90;;;;;;6178299;23;20522;-78
2023/03/22 00:53:49;;;;;;;8.83;6.43;;;11.10;99.90;;;;;;6178800;23;20189;-79
2023/03/22 00:56:16;;;;;;;9.30;6.17;;;11.10;99.90;;;;;;6179702;23;20143;-79
2023/03/22 00:58:55;;;;;;;8.67;7.77;;;11.10;99.90;;;;;;6177905;23;20389;-79
2023/03/22 01:01:20;;;;;;;8.03;7.00;;;11.00;99.90;;;;;;6177538;23;20377;-81
2023/03/22 01:03:49;;;;;;;13.73;7.17;;;11.00;99.90;;;;;;6154033;23;20198;-79
2023/03/22 01:06:15;;;;;;;9.20;6.57;;;10.90;99.90;;;;;;6178943;23;20181;-78
2023/03/22 01:08:41;;;;;;;8.50;7.23;;;10.80;99.90;;;;;;6179106;23;20426;-77
2023/03/22 01:11:08;;;;;;;12.57;7.40;;;10.80;99.90;;;;;;6155112;23;20409;-77
2023/03/22 01:13:38;;;;;;;10.47;8.20;;;10.80;99.90;;;;;;6178176;23;20373;-79
2023/03/22 01:16:05;;;;;;;8.80;6.77;;;10.70;99.90;;;;;;6179348;23;20405;-79
2023/03/22 01:18:32;;;;;;;7.83;6.20;;;10.80;99.90;;;;;;6148712;23;20426;-80
2023/03/22 01:20:59;;;;;;;8.33;6.23;;;10.80;99.90;;;;;;6148705;23;20366;-78
2023/03/22 01:23:25;;;;;;;9.27;6.40;;;10.80;99.90;;;;;;6173626;23;20401;-76
2023/03/22 01:25:50;;;;;;;7.60;5.50;;;10.80;99.90;;;;;;6173939;23;20358;-78
2023/03/22 01:28:16;;;;;;;8.27;6.63;;;10.80;99.90;;;;;;6174510;23;20254;-78
2023/03/22 01:30:41;;;;;;;6.90;5.70;;;10.90;99.90;;;;;;6172530;23;20155;-82
2023/03/22 01:33:07;;;;;;;7.50;6.20;;;10.90;99.90;;;;;;6147005;23;20154;-78
2023/03/22 01:35:34;;;;;;;7.97;6.17;;;10.90;99.90;;;;;;6171014;23;20143;-80
2023/03/22 01:38:00;;;;;;;9.03;5.93;;;10.90;99.90;;;;;;6145990;23;20231;-78
2023/03/22 01:40:26;;;;;;;6.60;5.20;;;10.80;99.90;;;;;;6147236;23;20483;-80
2023/03/22 01:42:53;;;;;;;6.20;5.50;;;10.80;99.90;;;;;;6147237;23;20210;-79
2023/03/22 01:45:26;;;;;;;6.60;5.57;;;10.70;99.90;;;;;;6146965;23;20222;-77
2023/03/22 01:47:59;;;;;;;6.37;5.00;;;10.70;99.90;;;;;;6147245;23;20446;-81
2023/03/22 01:50:25;;;;;;;5.80;4.77;;;10.60;99.90;;;;;;6147860;23;20367;-79
2023/03/22 01:52:52;;;;;;;5.77;5.17;;;10.50;99.90;;;;;;6147119;23;20379;-80
2023/03/22 01:55:24;;;;;;;5.50;4.33;;;10.50;99.90;;;;;;6148478;23;20700;-79
2023/03/22 01:58:07;;;;;;;5.23;3.97;;;10.40;99.90;;;;;;6149250;23;20472;-80
2023/03/22 02:00:44;;;;;;;5.40;4.77;;;10.20;99.90;;;;;;6170502;23;20708;-79
2023/03/22 02:04:06;;;;;;;8.43;6.27;;;10.20;99.90;;;;;;6169826;23;20393;-78
2023/03/22 02:06:37;;;;;;;8.57;7.03;;;10.10;99.90;;;;;;6169715;23;20378;-79
2023/03/22 02:09:12;;;;;;;6.43;5.70;;;10.10;99.90;;;;;;6166941;23;20422;-80
2023/03/22 02:11:42;;;;;;;6.13;5.13;;;10.10;99.90;;;;;;6145306;23;20367;-80
2023/03/22 02:15:02;;;;;;;5.80;4.80;;;10.00;99.90;;;;;;6156122;23;20394;-81
2023/03/22 02:18:10;;;;;;;7.27;5.50;;;9.90;99.90;;;;;;6174843;23;20387;-79
2023/03/22 02:20:49;;;;;;;8.47;6.07;;;9.90;99.90;;;;;;6175269;23;20392;-79
2023/03/22 02:23:42;;;;;;;7.27;5.60;;;9.90;99.90;;;;;;6150788;23;20365;-80
2023/03/22 02:26:25;;;;;;;7.13;5.33;;;9.90;99.90;;;;;;6175611;23;20394;-81
2023/03/22 02:28:54;;;;;;;8.80;6.60;;;9.90;99.90;;;;;;6153753;23;20516;-81
2023/03/22 02:31:29;;;;;;;6.60;5.90;;;9.90;99.90;;;;;;6175309;23;20409;-79
2023/03/22 02:34:52;;;;;;;5.83;4.20;;;9.90;99.90;;;;;;6151854;23;20373;-80
2023/03/22 02:37:49;;;;;;;5.80;5.13;;;9.90;99.90;;;;;;6057551;23;20373;-79
2023/03/22 02:40:30;;;;;;;8.53;4.97;;;9.80;99.90;;;;;;6055906;23;20373;-79
2023/03/22 02:43:17;;;;;;;5.93;5.33;;;9.70;99.90;;;;;;6081155;23;20370;-79
2023/03/22 02:46:06;;;;;;;7.23;6.37;;;9.70;99.90;;;;;;6056663;23;20375;-80
2023/03/22 02:48:43;;;;;;;6.13;4.70;;;9.70;99.90;;;;;;6068493;23;20445;-80
2023/03/22 02:51:15;;;;;;;7.13;5.57;;;9.60;99.90;;;;;;6032152;23;20400;-80
2023/03/22 02:53:43;;;;;;;10.63;5.77;;;9.60;99.90;;;;;;6032243;23;20373;-78
2023/03/22 02:56:22;;;;;;;13.10;8.00;;;9.60;99.90;;;;;;6081304;23;20524;-79
2023/03/22 02:58:55;;;;;;;6.73;5.20;;;9.50;99.90;;;;;;6080467;23;20834;-79
2023/03/22 03:01:37;;;;;;;5.73;4.83;;;9.60;99.90;;;;;;6080677;23;20381;-78
2023/03/22 03:04:07;;;;;;;9.20;6.40;;;9.60;99.90;;;;;;6054691;23;20368;-78
2023/03/22 03:06:38;;;;;;;6.77;5.57;;;9.60;99.90;;;;;;6080011;23;20389;-82
2023/03/22 03:09:06;;;;;;;7.77;5.20;;;9.60;99.90;;;;;;6163022;23;20450;-79
2023/03/22 03:11:32;;;;;;;7.90;6.27;;;9.60;99.90;;;;;;6152296;23;20342;-79
2023/03/22 03:13:59;;;;;;;5.27;4.40;;;9.60;99.90;;;;;;6187783;23;20378;-82
2023/03/22 03:16:28;;;;;;;11.17;7.07;;;9.60;99.90;;;;;;6161241;23;20791;-78
2023/03/22 03:19:13;;;;;;;7.10;6.00;;;9.50;99.90;;;;;;6152503;23;20454;-78
2023/03/22 03:22:12;;;;;;;9.70;6.30;;;9.50;99.90;;;;;;6182171;23;20369;-77
2023/03/22 03:25:17;;;;;;;7.50;4.87;;;9.50;99.90;;;;;;6152034;23;20404;-79
2023/03/22 03:28:08;;;;;;;6.40;4.43;;;9.50;99.90;;;;;;6087203;23;20798;-78
2023/03/22 03:30:59;;;;;;;9.23;6.63;;;9.40;99.90;;;;;;6153555;23;20382;-78
2023/03/22 03:33:26;;;;;;;8.63;5.50;;;9.50;99.90;;;;;;6172826;23;20370;-80
2023/03/22 03:36:01;;;;;;;6.20;5.10;;;9.50;99.90;;;;;;6149817;23;20386;-81
2023/03/22 03:38:31;;;;;;;6.97;5.33;;;9.50;99.90;;;;;;6147615;23;20477;-81
2023/03/22 03:41:09;;;;;;;6.33;5.17;;;9.50;99.90;;;;;;6148666;23;20375;-79
2023/03/22 03:43:36;;;;;;;6.90;5.73;;;9.40;99.90;;;;;;6146958;23;20446;-82
2023/03/22 03:46:02;;;;;;;8.80;5.50;;;9.40;99.90;;;;;;6147072;23;20375;-81
2023/03/22 03:48:32;;;;;;;9.50;6.20;;;9.40;99.90;;;;;;6143132;23;20894;-78
2023/03/22 03:51:26;;;;;;;7.80;5.57;;;9.40;99.90;;;;;;6184888;23;20132;-79
2023/03/22 03:54:01;;;;;;;7.97;5.30;;;9.50;99.90;;;;;;6150171;23;20394;-78
2023/03/22 03:56:27;;;;;;;10.43;5.93;;;9.50;99.90;;;;;;6167975;23;20386;-80
2023/03/22 03:58:54;;;;;;;10.70;7.33;;;9.40;99.90;;;;;;6143604;23;20174;-79
2023/03/22 04:01:20;;;;;;;8.27;5.47;;;9.40;99.90;;;;;;6168041;23;20386;-80
2023/03/22 04:04:00;;;;;;;9.23;6.43;;;9.40;99.90;;;;;;6167276;23;20379;-78
2023/03/22 04:06:33;;;;;;;7.87;6.10;;;9.30;99.90;;;;;;6144829;23;20381;-79
2023/03/22 04:09:03;;;;;;;9.10;6.40;;;9.40;99.90;;;;;;6121107;23;21161;-80
2023/03/22 04:11:32;;;;;;;9.53;6.27;;;9.40;99.90;;;;;;6172863;23;20390;-79
2023/03/22 04:14:00;;;;;;;10.63;7.10;;;9.30;99.90;;;;;;6176088;23;20417;-80
2023/03/22 04:16:26;;;;;;;8.07;6.47;;;9.30;99.90;;;;;;6172666;23;20389;-81
2023/03/22 04:18:52;;;;;;;8.80;5.63;;;9.30;99.90;;;;;;6147648;23;20245;-79
2023/03/22 04:21:18;;;;;;;9.97;5.57;;;9.20;99.90;;;;;;6172312;23;20802;-77
2023/03/22 04:24:11;;;;;;;7.87;6.60;;;9.10;99.90;;;;;;6172173;23;20579;-78
2023/03/22 04:26:41;;;;;;;9.73;6.73;;;9.20;99.90;;;;;;6198816;23;20390;-78
2023/03/22 04:29:18;;;;;;;7.67;5.07;;;9.10;99.90;;;;;;6172022;23;20433;-78
2023/03/22 04:31:51;;;;;;;9.47;6.37;;;9.00;99.90;;;;;;6153859;23;20350;-76
2023/03/22 04:34:23;;;;;;;8.30;6.33;;;9.00;99.90;;;;;;6156913;23;20389;-78
2023/03/22 04:37:01;;;;;;;6.63;5.60;;;8.90;99.90;;;;;;6157559;23;20449;-77
2023/03/22 04:39:29;;;;;;;6.37;5.20;;;8.90;99.90;;;;;;6146702;23;20500;-80
2023/03/22 04:42:18;;;;;;;7.23;6.37;;;8.80;99.90;;;;;;6142348;23;20401;-79
2023/03/22 04:44:45;;;;;;;14.60;7.93;;;8.80;99.90;;;;;;6147693;23;20374;-81
2023/03/22 04:47:11;;;;;;;10.13;7.73;;;8.70;99.90;;;;;;6154195;23;20379;-81
2023/03/22 04:49:37;;;;;;;11.70;6.43;;;8.70;99.90;;;;;;6172862;23;20162;-80
2023/03/22 04:52:02;;;;;;;7.33;5.80;;;8.70;99.90;;;;;;6173154;23;20153;-81
2023/03/22 04:54:33;;;;;;;8.60;7.47;;;8.60;99.90;;;;;;6172317;23;20153;-79
2023/03/22 04:57:00;;;;;;;11.30;7.20;;;8.70;99.90;;;;;;6148920;23;20442;-79
2023/03/22 04:59:28;;;;;;;8.50;6.53;;;8.70;99.90;;;;;;6171303;23;20720;-80
2023/03/22 05:21:02;;;;;;;8.00;6.73;;;8.70;99.90;;;;;;6217700;23;20467;-76
